Time;durP1;ratioP1;P1;durP2;ratioP2;P2;SDS_P1;SDS_P2;PMS_P1;PMS_P2;Temp;Humidity;BMP_temperature;BMP_pressure;BME280_temperature;BME280_humidity;BME280_pressure;Samples;Min_cycle;Max_cycle;Signal;HPM_P1;HPM_P2
2023/03/31 00:10:36;;;;;;;12.90;1.95;;;;;;;15.98;56.11;96868.69;5047998;28;20546;-33
2023/03/31 00:23:56;;;;;;;7.38;2.00;;;;;;;15.87;56.10;96841.00;5053076;28;20444;-33
2023/03/31 00:26:22;;;;;;;10.32;1.73;;;;;;;15.96;55.46;96843.75;5040913;28;20044;-32
2023/03/31 00:28:49;;;;;;;6.35;1.60;;;;;;;15.94;55.67;96838.00;5052781;28;20061;-33
2023/03/31 00:31:14;;;;;;;6.10;1.50;;;;;;;15.86;55.92;96842.22;5052117;28;20071;-33
2023/03/31 00:40:23;;;;;;;10.43;2.13;;;;;;;15.95;55.38;96834.03;5047794;28;20076;-33
2023/03/31 00:56:16;;;;;;;5.75;1.65;;;;;;;15.77;55.65;96817.59;5046483;28;20032;-32
2023/03/31 01:09:29;;;;;;;10.23;2.70;;;;;;;15.91;55.43;96797.13;5050553;28;20076;-33
2023/03/31 01:25:41;;;;;;;10.25;2.25;;;;;;;15.89;54.97;96748.31;5051824;28;20443;-33
2023/03/31 01:55:34;;;;;;;7.63;2.90;;;;;;;15.82;54.86;96679.50;5037359;28;20036;-33
2023/03/31 02:11:28;;;;;;;11.70;2.10;;;;;;;15.76;55.34;96668.41;5035739;28;20095;-33
2023/03/31 02:40:48;;;;;;;5.22;2.10;;;;;;;15.85;55.71;96646.50;5030382;28;20132;-34
2023/03/31 02:57:03;;;;;;;6.15;2.40;;;;;;;15.73;56.06;96631.00;5038125;28;20393;-32
2023/03/31 03:26:23;;;;;;;8.57;2.63;;;;;;;16.11;54.79;96578.56;5050445;28;20539;-33
2023/03/31 03:42:15;;;;;;;7.45;2.95;;;;;;;15.82;55.66;96545.50;5040291;28;20118;-33
2023/03/31 03:58:08;;;;;;;8.95;2.72;;;;;;;15.78;55.59;96551.13;5053930;28;20063;-33
2023/03/31 04:14:00;;;;;;;5.47;2.70;;;;;;;15.72;55.68;96569.34;5052561;28;20488;-34
2023/03/31 04:26:49;;;;;;;9.15;2.67;;;;;;;15.81;55.06;96585.75;5043777;28;20060;-34
2023/03/31 04:42:23;;;;;;;12.43;3.38;;;;;;;15.51;55.66;96572.97;5042210;28;20065;-33
2023/03/31 04:58:15;;;;;;;10.10;2.53;;;;;;;15.70;54.95;96572.53;5046408;28;20099;-34
2023/03/31 05:14:08;;;;;;;9.38;4.25;;;;;;;15.32;55.88;96559.31;5051776;28;20044;-33
2023/03/31 05:27:31;;;;;;;15.15;6.85;;;;;;;15.54;55.41;96563.84;5044427;28;20087;-33
2023/03/31 05:43:24;;;;;;;8.95;3.30;;;;;;;15.69;55.18;96564.81;5036434;28;20052;-34
2023/03/31 05:59:17;;;;;;;6.93;2.58;;;;;;;15.52;56.00;96552.63;5045250;28;20039;-33
2023/03/31 06:15:10;;;;;;;9.77;2.85;;;;;;;15.68;56.12;96536.69;5050759;28;20083;-33
2023/03/31 06:28:14;;;;;;;7.00;2.92;;;;;;;15.64;56.16;96543.53;5047237;28;20032;-33
2023/03/31 06:44:06;;;;;;;8.82;2.95;;;;;;;15.58;56.57;96548.84;5030781;28;20071;-33
2023/03/31 07:00:25;;;;;;;6.72;2.50;;;;;;;15.86;56.43;96524.97;5044909;28;20074;-33
2023/03/31 07:13:41;;;;;;;10.40;3.42;;;;;;;15.82;56.02;96526.38;5049105;28;20032;-33
2023/03/31 07:29:33;;;;;;;7.22;2.60;;;;;;;15.78;55.81;96507.38;5040089;28;20055;-33
2023/03/31 07:45:25;;;;;;;7.65;2.75;;;;;;;15.77;56.02;96511.31;5041692;28;20055;-34
2023/03/31 08:01:19;;;;;;;9.75;3.42;;;;;;;15.87;55.89;96501.13;5042837;28;20040;-33
2023/03/31 08:14:21;;;;;;;7.88;3.10;;;;;;;15.95;56.06;96511.25;5046710;28;20052;-33
2023/03/31 08:30:14;;;;;;;14.73;3.55;;;;;;;15.87;56.28;96501.88;5043812;28;20032;-33
2023/03/31 08:46:11;;;;;;;9.90;3.67;;;;;;;15.89;56.72;96502.19;5039994;28;20183;-29
2023/03/31 09:16:13;;;;;;;8.07;3.25;;;;;;;15.78;57.94;96433.53;5050242;28;20072;-30
2023/03/31 09:45:26;;;;;;;11.60;3.65;;;;;;;15.93;57.76;96387.91;5021449;28;20052;-30
2023/03/31 10:01:22;;;;;;;10.90;3.78;;;;;;;16.07;57.60;96416.56;5022463;28;20033;-31
2023/03/31 10:17:19;;;;;;;15.57;3.45;;;;;;;16.27;56.95;96426.97;5051401;28;20036;-30
2023/03/31 10:19:57;;;;;;;13.13;3.28;;;;;;;16.05;57.76;96419.78;5050109;28;20430;-31
2023/03/31 10:32:33;;;;;;;7.53;3.40;;;;;;;16.08;57.87;96398.91;5050983;28;20044;-30
2023/03/31 10:48:29;;;;;;;14.73;4.55;;;;;;;16.18;57.95;96321.06;5041094;28;20106;-30
2023/03/31 11:01:28;;;;;;;14.82;3.70;;;;;;;16.05;58.92;96288.47;5034593;28;20384;-31
2023/03/31 11:17:30;;;;;;;15.70;3.67;;;;;;;16.44;57.47;96296.72;5040418;28;20059;-32
2023/03/31 11:33:40;;;;;;;12.52;3.67;;;;;;;16.26;57.94;96291.38;5049874;28;20392;-30
2023/03/31 11:47:05;;;;;;;10.75;3.95;;;;;;;16.31;57.69;96266.88;5042933;28;20024;-30
2023/03/31 12:03:18;;;;;;;10.77;3.60;;;;;;;16.35;57.53;96255.72;5047608;28;20035;-29
2023/03/31 12:32:45;;;;;;;18.15;4.22;;;;;;;16.32;58.74;96243.00;5038662;28;20047;-29
2023/03/31 12:48:51;;;;;;;10.10;3.88;;;;;;;16.47;57.55;96199.97;5038927;28;20131;-30
2023/03/31 13:18:19;;;;;;;9.48;3.38;;;;;;;16.69;56.70;96114.75;5052919;28;20043;-29
2023/03/31 13:34:12;;;;;;;12.73;4.10;;;;;;;16.60;57.40;96125.75;5049474;28;20125;-29
2023/03/31 13:36:48;;;;;;;10.80;3.47;;;;;;;16.64;57.46;96118.91;5050661;28;20025;-30
2023/03/31 13:49:46;;;;;;;10.40;4.53;;;;;;;16.79;57.12;96108.69;5036412;28;20075;-29
2023/03/31 14:19:15;;;;;;;12.57;4.10;;;;;;;16.51;58.51;96036.28;5050876;28;20031;-31
2023/03/31 14:35:17;;;;;;;17.70;3.50;;;;;;;16.42;58.23;95989.88;5047402;28;20479;-30
2023/03/31 15:05:30;;;;;;;14.35;3.10;;;;;;;16.66;57.18;95960.41;5044121;28;20491;-32
2023/03/31 15:34:50;;;;;;;13.77;3.63;;;;;;;16.86;56.31;95962.38;5049973;28;20515;-29
2023/03/31 15:50:44;;;;;;;10.75;4.38;;;;;;;16.74;56.63;95947.81;5047256;28;20056;-29
2023/03/31 16:06:48;;;;;;;12.85;4.43;;;;;;;16.80;55.93;95950.63;5044955;28;20048;-29
2023/03/31 16:19:53;;;;;;;15.63;5.38;;;;;;;16.66;56.50;95935.00;5042260;28;20166;-29
2023/03/31 16:35:49;;;;;;;13.57;4.25;;;;;;;16.47;57.27;95896.88;5053244;28;20040;-29
2023/03/31 16:51:41;;;;;;;19.70;5.63;;;;;;;16.41;57.46;95889.84;5045373;28;20047;-30
2023/03/31 17:07:33;;;;;;;9.27;4.97;;;;;;;16.38;58.64;95885.31;5043722;28;20028;-30
2023/03/31 17:20:34;;;;;;;14.65;5.15;;;;;;;16.37;59.52;95881.84;5051684;28;20028;-30
2023/03/31 17:36:27;;;;;;;17.70;6.30;;;;;;;16.30;60.32;95846.69;5052194;28;20098;-28
2023/03/31 17:52:19;;;;;;;17.77;7.00;;;;;;;16.28;60.79;95864.78;5043238;28;20063;-31
2023/03/31 18:08:11;;;;;;;17.17;6.28;;;;;;;16.23;60.73;95824.41;5041154;28;20479;-31
2023/03/31 18:21:16;;;;;;;18.92;5.90;;;;;;;16.22;61.16;95817.44;5045123;28;20059;-30
2023/03/31 18:37:08;;;;;;;14.80;5.13;;;;;;;16.26;60.92;95834.41;5049307;28;20036;-30
2023/03/31 18:53:00;;;;;;;23.73;7.63;;;;;;;16.22;60.61;95853.00;5043982;28;20052;-31
2023/03/31 19:22:19;;;;;;;19.35;6.85;;;;;;;16.23;60.78;95836.13;5050256;28;20040;-30
2023/03/31 19:24:45;;;;;;;15.32;6.00;;;;;;;16.39;60.37;95843.06;5041629;28;20017;-30
2023/03/31 19:27:11;;;;;;;23.77;6.25;;;;;;;16.30;60.51;95834.97;5049628;28;20373;-30
2023/03/31 19:37:03;;;;;;;15.73;5.65;;;;;;;16.23;60.69;95847.06;5042476;28;20452;-30
2023/03/31 19:52:56;;;;;;;26.05;12.07;;;;;;;16.19;60.13;95893.03;5032936;28;20048;-30
2023/03/31 20:08:53;;;;;;;19.80;7.55;;;;;;;16.41;60.26;95911.75;5048043;28;20534;-31
2023/03/31 20:24:46;;;;;;;21.05;8.82;;;;;;;16.22;61.32;95905.00;5038932;28;20040;-30
2023/03/31 20:37:48;;;;;;;18.77;6.07;;;;;;;16.05;62.01;95850.81;5051382;28;20040;-30
2023/03/31 20:40:13;;;;;;;22.75;6.30;;;;;;;16.04;62.53;95830.16;5051497;28;20411;-30
2023/03/31 20:53:09;;;;;;;16.00;5.25;;;;;;;16.00;62.74;95828.84;5048271;28;20052;-31
2023/03/31 21:09:02;;;;;;;35.28;13.43;;;;;;;16.11;62.16;95880.97;5045857;28;20047;-30
2023/03/31 21:24:55;;;;;;;24.65;11.50;;;;;;;16.29;61.64;95885.47;5043540;28;20029;-30
2023/03/31 21:54:14;;;;;;;16.67;7.00;;;;;;;16.41;61.12;95862.47;5038251;28;20056;-30
2023/03/31 22:10:07;;;;;;;13.80;5.53;;;;;;;16.27;61.37;95855.84;5051427;28;20491;-30
2023/03/31 22:12:32;;;;;;;19.08;4.78;;;;;;;16.27;61.33;95852.34;5051194;28;20111;-31
2023/03/31 22:25:05;;;;;;;19.65;4.70;;;;;;;16.17;61.52;95792.28;5041848;28;20048;-30
2023/03/31 22:40:57;;;;;;;14.38;5.10;;;;;;;16.29;60.89;95776.00;5050876;28;20039;-31
2023/03/31 22:56:57;;;;;;;17.15;4.68;;;;;;;16.14;61.10;95759.66;5038827;28;20082;-30
2023/03/31 22:59:22;;;;;;;11.05;4.18;;;;;;;16.24;60.73;95771.22;5049506;28;20109;-30
2023/03/31 23:25:19;;;;;;;11.48;4.18;;;;;;;16.19;60.77;95752.75;5043110;28;20051;-30
2023/03/31 23:41:13;;;;;;;14.40;5.25;;;;;;;15.97;61.62;95715.69;5048498;28;20031;-30
